ヌメア の空港の天気 - METARとTAF

ヌメア国際空港 ( NWWW / NOU ) - ニューカレドニア ヌメア
飛行場実況気象(Metar)
観測時間05/27 06:30 NCT (05/26 19:30 UTC)
風向・風速北 1m/s
視程10km以上
天気現象
なし
気温19℃
湿度83%
気圧1020hPa
METARNWWW 261930Z AUTO 01002KT CAVOK 19/16 Q1020 NOSIG
過去の天気等 Google飛行場航空写真 Wunderground天気予報

過去48時間のMETAR

飛行場予報(TAF)
発表時間: 5/27 04:00 NCT (5/26 17:00 UTC)
予報対象時間: 27日5時 NCT ~ 28日5時 NCT
風向・風速不定 1m/s
視程10km以上
少しの雲 雲底高度 1680m
27日11時 NCT ~ 27日13時 NCT に徐々に
風向・風速南東 5m/s
27日17時 NCT ~ 27日19時 NCT に徐々に
風向・風速不定 1m/s
TAF NWWW 261700Z 2618/2718 VRB02KT 9999 FEW055
BECMG 2700/2702 13010KT
BECMG 2706/2708 VRB02KT